Time;durP1;ratioP1;P1;durP2;ratioP2;P2;SDS_P1;SDS_P2;PMS_P1;PMS_P2;Temp;Humidity;BMP_temperature;BMP_pressure;BME280_temperature;BME280_humidity;BME280_pressure;Samples;Min_cycle;Max_cycle;Signal;HPM_P1;HPM_P2
2022/11/30 00:01:20;;;;;;;30.70;19.50;;;;;;;0.12;76.82;101254.64;100804;1295;137604;-71
2022/11/30 00:03:48;;;;;;;31.60;19.40;;;;;;;0.13;76.85;101251.73;99803;1297;95174;-70
2022/11/30 00:06:21;;;;;;;27.20;18.20;;;;;;;0.12;76.79;101258.21;99821;1285;109670;-70
2022/11/30 00:08:49;;;;;;;27.70;18.50;;;;;;;0.08;76.78;101256.58;100461;1293;94370;-71
2022/11/30 00:11:19;;;;;;;30.40;18.30;;;;;;;0.04;76.89;101255.30;99592;1295;107942;-71
2022/11/30 00:13:47;;;;;;;27.50;18.60;;;;;;;0.04;76.94;101254.25;100430;1301;140969;-71
2022/11/30 00:16:15;;;;;;;29.70;18.40;;;;;;;0.03;76.98;101256.46;100337;1299;95016;-71
2022/11/30 00:18:42;;;;;;;28.20;17.10;;;;;;;0.02;77.05;101256.10;100394;1298;138565;-69
2022/11/30 00:21:13;;;;;;;30.00;18.70;;;;;;;0.02;77.07;101251.48;100428;1300;95143;-70
2022/11/30 00:23:42;;;;;;;29.90;17.90;;;;;;;0.05;77.18;101249.66;100247;1294;106975;-71
2022/11/30 00:26:11;;;;;;;31.90;19.70;;;;;;;0.08;77.17;101249.91;100114;1305;137533;-69
2022/11/30 00:28:40;;;;;;;32.50;19.30;;;;;;;0.08;77.15;101258.98;101112;1293;94702;-69
2022/11/30 00:31:09;;;;;;;31.90;19.70;;;;;;;0.08;77.03;101257.45;98330;1295;1003423;-70
2022/11/30 00:33:37;;;;;;;33.40;21.40;;;;;;;0.07;77.12;101253.83;100316;1289;95126;-70
2022/11/30 00:36:08;;;;;;;34.80;21.30;;;;;;;0.06;77.25;101257.73;100022;1283;109325;-70
2022/11/30 00:38:35;;;;;;;35.50;21.00;;;;;;;0.05;77.29;101257.02;101058;1285;138144;-69
2022/11/30 00:41:02;;;;;;;33.50;20.20;;;;;;;0.06;77.41;101263.55;101266;1302;93197;-70
2022/11/30 00:43:30;;;;;;;35.50;20.70;;;;;;;0.07;77.47;101264.60;100374;1300;138301;-69
2022/11/30 00:45:58;;;;;;;35.30;21.00;;;;;;;0.09;77.53;101267.71;99865;1295;95141;-70
2022/11/30 00:48:26;;;;;;;32.70;19.80;;;;;;;0.11;77.42;101264.03;99884;1293;108914;-70
2022/11/30 00:50:53;;;;;;;34.90;19.60;;;;;;;0.14;77.50;101268.71;99793;1287;108954;-69
2022/11/30 00:53:21;;;;;;;30.80;20.00;;;;;;;0.18;77.47;101265.55;99897;1292;95516;-69
2022/11/30 00:55:49;;;;;;;30.60;19.50;;;;;;;0.22;77.55;101269.47;100975;1286;138111;-70
2022/11/30 00:58:16;;;;;;;31.50;19.80;;;;;;;0.28;77.40;101273.02;101092;1300;93232;-69
2022/11/30 01:00:44;;;;;;;32.50;19.80;;;;;;;0.28;77.23;101274.05;101103;1297;137171;-70
2022/11/30 01:03:11;;;;;;;34.30;20.80;;;;;;;0.25;77.21;101269.54;101085;1288;108783;-70
2022/11/30 01:05:39;;;;;;;35.70;22.10;;;;;;;0.25;77.23;101268.84;100979;1294;95814;-69
2022/11/30 01:08:08;;;;;;;31.80;20.10;;;;;;;0.25;77.27;101270.38;100976;1287;137302;-70
2022/11/30 01:10:37;;;;;;;31.90;19.40;;;;;;;0.23;77.23;101266.91;99810;1292;95290;-69
2022/11/30 01:13:04;;;;;;;30.10;18.60;;;;;;;0.22;77.26;101271.01;99723;1292;137837;-70
2022/11/30 01:15:35;;;;;;;29.20;19.10;;;;;;;0.22;77.18;101277.16;99603;1292;107419;-70
2022/11/30 01:18:02;;;;;;;30.00;18.60;;;;;;;0.22;77.17;101276.98;101088;1302;94721;-70
2022/11/30 01:20:30;;;;;;;29.90;18.50;;;;;;;0.22;77.25;101276.11;100164;1299;138120;-71
2022/11/30 01:22:57;;;;;;;32.90;19.40;;;;;;;0.24;77.18;101277.55;100419;1297;95104;-71
2022/11/30 01:25:25;;;;;;;30.70;19.80;;;;;;;0.27;77.29;101277.80;100038;1296;137179;-70
2022/11/30 01:27:53;;;;;;;29.40;19.10;;;;;;;0.29;77.16;101277.65;99814;1288;107986;-69
2022/11/30 01:30:20;;;;;;;34.10;20.60;;;;;;;0.28;77.12;101277.11;100278;1299;95208;-70
2022/11/30 01:32:47;;;;;;;33.20;19.80;;;;;;;0.27;77.24;101281.70;100102;1298;109583;-70
2022/11/30 01:35:15;;;;;;;31.10;19.60;;;;;;;0.25;77.25;101280.48;100088;1291;95914;-70
2022/11/30 01:37:42;;;;;;;33.00;20.20;;;;;;;0.23;77.12;101284.70;100854;1291;138503;-70
2022/11/30 01:40:12;;;;;;;26.10;17.10;;;;;;;0.22;77.19;101283.66;101173;1298;107556;-71
2022/11/30 01:42:45;;;;;;;29.30;18.10;;;;;;;0.22;77.09;101281.93;101323;1291;138443;-70
2022/11/30 01:45:14;;;;;;;30.60;18.80;;;;;;;0.20;77.08;101285.48;101471;1298;108848;-71
2022/11/30 01:47:46;;;;;;;29.90;19.20;;;;;;;0.21;77.21;101285.15;100395;1292;95109;-70
2022/11/30 01:50:21;;;;;;;35.20;20.50;;;;;;;0.20;77.22;101288.73;100297;1297;138407;-70
2022/11/30 01:52:52;;;;;;;33.10;19.10;;;;;;;0.21;77.37;101283.98;99933;1292;108153;-70
2022/11/30 01:55:22;;;;;;;32.80;19.20;;;;;;;0.21;77.10;101286.69;100469;1297;139759;-71
2022/11/30 01:57:56;;;;;;;29.90;18.30;;;;;;;0.19;77.13;101286.99;100005;1291;107489;-69
2022/11/30 02:00:24;;;;;;;30.30;18.30;;;;;;;0.20;77.08;101284.29;100227;1292;95186;-69
2022/11/30 02:02:59;;;;;;;31.00;18.50;;;;;;;0.22;77.09;101283.81;101488;1292;108253;-71
2022/11/30 02:05:28;;;;;;;27.90;18.90;;;;;;;0.25;77.18;101284.06;100905;1295;106120;-71
2022/11/30 02:07:56;;;;;;;27.60;18.20;;;;;;;0.26;77.02;101289.56;100098;1291;137785;-71
2022/11/30 02:10:29;;;;;;;28.60;18.70;;;;;;;0.23;76.81;101286.06;100046;1291;109632;-70
2022/11/30 02:13:21;;;;;;;31.00;19.00;;;;;;;0.19;76.83;101287.83;100003;1291;137587;-71
2022/11/30 02:16:01;;;;;;;32.60;19.10;;;;;;;0.17;76.96;101289.98;100070;1295;110035;-71
2022/11/30 02:18:35;;;;;;;30.00;18.40;;;;;;;0.15;77.03;101284.80;99908;1290;138636;-69
2022/11/30 02:21:11;;;;;;;30.10;18.60;;;;;;;0.13;77.17;101281.02;99947;1291;96988;-70
2022/11/30 02:24:13;;;;;;;29.10;19.50;;;;;;;0.16;76.95;101284.34;101303;1292;107184;-70
2022/11/30 02:26:58;;;;;;;30.00;18.20;;;;;;;0.18;77.19;101283.18;101144;1294;138430;-69
2022/11/30 02:29:28;;;;;;;30.20;18.10;;;;;;;0.21;77.19;101283.80;101273;1301;110114;-69
2022/11/30 02:32:04;;;;;;;33.90;18.90;;;;;;;0.25;77.20;101284.75;101215;1291;138784;-70
2022/11/30 02:34:35;;;;;;;31.90;18.80;;;;;;;0.30;77.21;101288.64;101010;1292;94627;-69
2022/11/30 02:37:03;;;;;;;30.60;18.70;;;;;;;0.34;77.12;101294.21;99909;1299;137567;-70
2022/11/30 02:39:30;;;;;;;31.30;19.10;;;;;;;0.36;76.90;101296.66;99812;1291;98445;-70
2022/11/30 02:41:57;;;;;;;33.50;20.50;;;;;;;0.33;76.83;101296.73;99929;1283;111108;-69
2022/11/30 02:44:26;;;;;;;33.50;19.80;;;;;;;0.29;76.82;101298.88;99884;1293;137321;-70
2022/11/30 02:47:04;;;;;;;33.10;19.50;;;;;;;0.26;76.97;101302.23;99975;1291;97237;-70
2022/11/30 02:49:38;;;;;;;30.70;19.00;;;;;;;0.24;77.05;101301.33;100434;1300;1002235;-70
2022/11/30 02:52:08;;;;;;;30.00;18.90;;;;;;;0.24;77.05;101300.45;100391;1299;96503;-69
2022/11/30 02:54:36;;;;;;;33.40;19.10;;;;;;;0.26;77.13;101301.53;99808;1297;139280;-70
2022/11/30 02:57:03;;;;;;;33.10;19.90;;;;;;;0.27;77.09;101300.36;99890;1293;107501;-71
2022/11/30 02:59:31;;;;;;;33.40;19.90;;;;;;;0.26;77.09;101298.79;100119;1289;96456;-70
2022/11/30 03:01:58;;;;;;;32.60;20.10;;;;;;;0.23;77.07;101300.77;99601;1283;137344;-71
2022/11/30 03:04:26;;;;;;;33.20;19.70;;;;;;;0.21;77.08;101301.91;99050;1290;1003052;-71
2022/11/30 03:06:53;;;;;;;34.90;19.90;;;;;;;0.18;77.09;101305.58;99646;1283;138559;-70
2022/11/30 03:09:21;;;;;;;33.50;19.90;;;;;;;0.15;77.24;101306.35;99706;1290;106885;-70
2022/11/30 03:11:48;;;;;;;32.40;18.80;;;;;;;0.15;77.30;101313.36;99793;1286;96990;-70
2022/11/30 03:14:15;;;;;;;32.30;20.10;;;;;;;0.18;77.27;101309.38;99857;1284;137736;-71
2022/11/30 03:16:43;;;;;;;33.10;20.40;;;;;;;0.20;77.04;101308.23;99881;1277;97080;-72
2022/11/30 03:19:11;;;;;;;33.70;20.30;;;;;;;0.21;77.14;101306.88;99630;1283;137291;-71
2022/11/30 03:21:39;;;;;;;38.30;22.00;;;;;;;0.21;77.18;101305.52;100212;1283;107808;-70
2022/11/30 03:24:08;;;;;;;30.70;18.40;;;;;;;0.21;77.38;101304.50;99839;1287;96433;-70
2022/11/30 03:26:35;;;;;;;34.10;20.80;;;;;;;0.23;77.20;101306.77;99748;1291;1002413;-70
2022/11/30 03:29:03;;;;;;;33.30;20.30;;;;;;;0.19;76.96;101312.98;100117;1292;97597;-70
2022/11/30 03:31:30;;;;;;;33.10;19.90;;;;;;;0.16;77.08;101311.87;99976;1292;139339;-70
2022/11/30 03:33:58;;;;;;;31.40;19.80;;;;;;;0.17;77.06;101319.22;99994;1291;106765;-70
2022/11/30 03:36:25;;;;;;;30.10;18.60;;;;;;;0.17;76.93;101318.88;99214;1285;1003745;-70
2022/11/30 03:38:52;;;;;;;32.50;19.30;;;;;;;0.16;76.99;101318.86;100031;1292;106934;-70
2022/11/30 03:41:20;;;;;;;33.00;20.50;;;;;;;0.18;77.08;101323.38;100094;1294;95985;-70
2022/11/30 03:43:48;;;;;;;36.80;22.40;;;;;;;0.18;76.96;101323.20;100023;1289;137262;-70
2022/11/30 03:46:17;;;;;;;38.30;21.50;;;;;;;0.18;77.05;101326.79;100048;1292;107433;-70
2022/11/30 03:48:44;;;;;;;35.60;21.50;;;;;;;0.18;77.10;101328.71;99753;1286;137589;-70
2022/11/30 03:51:13;;;;;;;36.30;21.50;;;;;;;0.17;77.16;101330.52;100619;1293;107627;-70
2022/11/30 03:53:41;;;;;;;34.00;21.20;;;;;;;0.16;77.15;101327.43;99762;1287;97119;-69
2022/11/30 03:56:11;;;;;;;31.20;19.70;;;;;;;0.17;77.21;101324.18;99734;1287;137911;-69
2022/11/30 03:58:38;;;;;;;34.30;21.20;;;;;;;0.18;77.27;101325.42;100561;1299;107038;-70
2022/11/30 04:01:08;;;;;;;33.90;20.60;;;;;;;0.20;77.12;101327.38;99974;1291;139662;-69
2022/11/30 04:03:37;;;;;;;28.70;18.90;;;;;;;0.20;76.99;101330.30;99973;1287;108009;-70
2022/11/30 04:06:06;;;;;;;34.70;20.70;;;;;;;0.19;76.94;101330.27;99804;1285;96505;-69
2022/11/30 04:08:34;;;;;;;32.80;19.90;;;;;;;0.18;76.96;101330.73;100720;1291;138770;-70
2022/11/30 04:11:03;;;;;;;30.60;19.00;;;;;;;0.18;77.03;101330.91;100184;1286;107499;-71
2022/11/30 04:13:31;;;;;;;29.60;18.40;;;;;;;0.18;76.73;101332.08;99865;1277;138184;-70
2022/11/30 04:15:59;;;;;;;34.00;20.20;;;;;;;0.18;76.64;101337.42;100036;1286;107330;-69
2022/11/30 04:18:28;;;;;;;31.30;19.10;;;;;;;0.19;76.56;101339.31;99859;1284;96574;-70
2022/11/30 04:20:57;;;;;;;30.60;18.70;;;;;;;0.16;76.46;101342.81;99810;1290;109958;-70
2022/11/30 04:23:26;;;;;;;30.40;19.30;;;;;;;0.15;76.67;101335.60;99702;1290;108213;-69
2022/11/30 04:25:54;;;;;;;36.00;20.50;;;;;;;0.14;76.79;101338.65;99858;1288;138540;-69
2022/11/30 04:28:21;;;;;;;33.90;19.60;;;;;;;0.14;76.84;101334.20;100057;1289;108518;-70
2022/11/30 04:30:48;;;;;;;31.50;20.60;;;;;;;0.13;76.83;101332.48;99801;1284;140154;-69
2022/11/30 04:33:17;;;;;;;32.30;19.30;;;;;;;0.15;76.90;101336.45;99621;1286;111378;-69
2022/11/30 04:35:47;;;;;;;31.80;18.90;;;;;;;0.17;76.84;101339.77;99025;1284;1003787;-69
2022/11/30 04:38:14;;;;;;;33.20;19.20;;;;;;;0.20;76.77;101338.50;99694;1286;137974;-69
2022/11/30 04:40:43;;;;;;;32.50;19.90;;;;;;;0.23;76.70;101343.35;99805;1286;108179;-70
2022/11/30 04:43:12;;;;;;;28.60;18.70;;;;;;;0.22;76.56;101339.08;99876;1287;137279;-69
2022/11/30 04:45:40;;;;;;;32.80;20.40;;;;;;;0.22;76.76;101341.81;99952;1291;110187;-69
2022/11/30 04:48:08;;;;;;;32.70;20.10;;;;;;;0.23;76.73;101346.95;100226;1289;107618;-70
2022/11/30 04:50:36;;;;;;;29.90;18.40;;;;;;;0.19;76.45;101342.74;100591;1284;137355;-70
2022/11/30 04:53:03;;;;;;;30.00;18.10;;;;;;;0.16;76.64;101345.38;99960;1289;107494;-69
2022/11/30 04:55:31;;;;;;;28.50;18.30;;;;;;;0.16;76.77;101345.22;99871;1291;137950;-70
2022/11/30 04:57:58;;;;;;;29.60;18.30;;;;;;;0.20;76.74;101348.23;99949;1291;110736;-71
2022/11/30 05:00:26;;;;;;;31.90;20.70;;;;;;;0.24;76.89;101346.64;101271;1293;107615;-69
2022/11/30 05:02:55;;;;;;;30.90;19.60;;;;;;;0.29;76.84;101349.35;100886;1298;96513;-70
2022/11/30 05:05:22;;;;;;;32.70;20.50;;;;;;;0.32;76.92;101353.52;99863;1285;107400;-69
2022/11/30 05:07:55;;;;;;;33.50;21.50;;;;;;;0.35;76.81;101358.39;99627;1291;138078;-70
2022/11/30 05:10:23;;;;;;;31.80;20.50;;;;;;;0.35;76.53;101358.90;99721;1283;111266;-69
2022/11/30 05:12:50;;;;;;;30.80;19.40;;;;;;;0.34;76.44;101361.59;100395;1286;138300;-69
2022/11/30 05:15:19;;;;;;;28.60;18.50;;;;;;;0.32;76.34;101357.95;99957;1291;96474;-70
2022/11/30 05:17:46;;;;;;;28.60;17.40;;;;;;;0.29;76.20;101363.36;100275;1285;107188;-68
2022/11/30 05:20:15;;;;;;;27.10;16.70;;;;;;;0.27;76.21;101360.73;99757;1291;138291;-70
2022/11/30 05:22:42;;;;;;;33.40;18.50;;;;;;;0.28;76.47;101356.33;99950;1283;108872;-68
2022/11/30 05:25:11;;;;;;;26.50;17.50;;;;;;;0.30;76.42;101356.55;99609;1285;138332;-69
2022/11/30 05:27:38;;;;;;;24.20;15.90;;;;;;;0.30;76.16;101360.48;101210;1301;96291;-70
2022/11/30 05:30:08;;;;;;;28.10;17.30;;;;;;;0.33;76.12;101356.79;100208;1285;107312;-69
2022/11/30 05:32:35;;;;;;;26.80;16.80;;;;;;;0.35;76.26;101359.60;101017;1294;137974;-70
2022/11/30 05:35:02;;;;;;;29.00;18.60;;;;;;;0.40;76.21;101362.81;100501;1287;108719;-71
2022/11/30 05:37:30;;;;;;;31.50;19.30;;;;;;;0.42;76.21;101360.80;99550;1286;137488;-70
2022/11/30 05:39:57;;;;;;;30.00;19.40;;;;;;;0.45;76.39;101363.80;99624;1287;96513;-70
2022/11/30 05:42:24;;;;;;;28.90;18.70;;;;;;;0.46;76.18;101364.67;99912;1291;108457;-69
2022/11/30 05:44:54;;;;;;;31.50;19.20;;;;;;;0.46;76.13;101369.64;99883;1285;96465;-69
2022/11/30 05:47:22;;;;;;;30.20;17.50;;;;;;;0.45;75.97;101369.80;99725;1287;111546;-70
2022/11/30 05:49:49;;;;;;;26.90;16.50;;;;;;;0.44;76.08;101376.63;99516;1291;138046;-71
2022/11/30 05:52:17;;;;;;;27.50;15.40;;;;;;;0.43;75.66;101373.85;99597;1286;96470;-71
2022/11/30 05:54:44;;;;;;;31.70;19.10;;;;;;;0.43;75.95;101378.80;99681;1284;137449;-70
2022/11/30 05:57:12;;;;;;;31.30;20.10;;;;;;;0.43;76.13;101376.08;100515;1284;96462;-71
2022/11/30 05:59:39;;;;;;;29.40;19.40;;;;;;;0.46;76.31;101376.98;100528;1286;109686;-70
2022/11/30 06:02:06;;;;;;;35.30;19.50;;;;;;;0.47;76.30;101374.80;99827;1286;137676;-71
2022/11/30 06:04:36;;;;;;;25.20;17.30;;;;;;;0.44;76.07;101384.31;100419;1291;98249;-69
2022/11/30 06:07:04;;;;;;;26.20;16.80;;;;;;;0.41;75.91;101383.39;100505;1282;138255;-70
2022/11/30 06:09:31;;;;;;;30.10;18.60;;;;;;;0.40;76.14;101389.17;99964;1285;96586;-69
2022/11/30 06:11:59;;;;;;;26.30;16.50;;;;;;;0.40;76.05;101389.52;100208;1291;108827;-69
2022/11/30 06:14:26;;;;;;;25.90;16.80;;;;;;;0.38;75.98;101386.20;100306;1299;138231;-71
2022/11/30 06:16:53;;;;;;;28.20;17.70;;;;;;;0.37;76.08;101388.23;100023;1292;96987;-71
2022/11/30 06:19:21;;;;;;;29.40;17.80;;;;;;;0.35;76.16;101389.52;99857;1297;138167;-71
2022/11/30 06:21:48;;;;;;;27.50;17.80;;;;;;;0.34;76.30;101385.23;99898;1283;97688;-72
2022/11/30 06:24:15;;;;;;;27.70;17.70;;;;;;;0.36;76.44;101384.45;100066;1292;109335;-72
2022/11/30 06:26:42;;;;;;;28.00;16.60;;;;;;;0.38;76.43;101378.15;99917;1293;139609;-71
2022/11/30 06:29:11;;;;;;;26.10;14.70;;;;;;;0.42;76.49;101385.80;99880;1284;1002540;-71
2022/11/30 06:31:38;;;;;;;24.90;15.40;;;;;;;0.44;76.13;101386.17;100283;1291;138047;-69
2022/11/30 06:34:05;;;;;;;25.70;17.00;;;;;;;0.44;76.10;101388.59;100023;1292;96491;-70
2022/11/30 06:36:33;;;;;;;27.10;17.40;;;;;;;0.45;76.14;101388.62;99889;1292;137344;-68
2022/11/30 06:39:02;;;;;;;28.20;17.80;;;;;;;0.44;76.06;101390.80;100241;1286;107262;-71
2022/11/30 06:41:29;;;;;;;31.50;18.40;;;;;;;0.46;76.31;101398.73;100016;1287;96469;-72
2022/11/30 06:43:57;;;;;;;33.40;18.90;;;;;;;0.46;76.38;101400.29;99958;1291;137429;-72
2022/11/30 06:46:25;;;;;;;33.00;18.00;;;;;;;0.46;76.40;101399.91;100013;1291;96551;-69
2022/11/30 06:48:53;;;;;;;27.00;17.60;;;;;;;0.50;76.56;101405.32;99936;1289;138221;-71
2022/11/30 06:51:20;;;;;;;28.70;17.70;;;;;;;0.53;76.50;101404.55;101250;1301;106724;-70
2022/11/30 06:53:48;;;;;;;26.90;17.70;;;;;;;0.55;76.33;101406.20;100452;1293;96581;-69
2022/11/30 06:56:16;;;;;;;29.50;18.60;;;;;;;0.57;76.21;101407.77;100184;1283;138818;-71
2022/11/30 06:58:43;;;;;;;30.10;18.90;;;;;;;0.59;76.22;101406.64;99906;1291;96481;-71
2022/11/30 07:01:13;;;;;;;32.50;19.50;;;;;;;0.60;76.30;101410.08;100205;1293;138837;-70
2022/11/30 07:03:42;;;;;;;30.10;20.30;;;;;;;0.61;76.36;101411.80;99934;1291;107813;-71
2022/11/30 07:06:13;;;;;;;32.50;20.50;;;;;;;0.58;76.20;101416.71;99795;1283;96476;-69
2022/11/30 07:08:41;;;;;;;33.30;20.80;;;;;;;0.55;76.17;101417.13;99731;1284;137869;-68
2022/11/30 07:11:10;;;;;;;31.80;19.60;;;;;;;0.52;76.22;101423.36;100120;1283;96353;-68
2022/11/30 07:13:38;;;;;;;32.50;21.00;;;;;;;0.47;76.32;101418.62;101230;1294;138235;-68
2022/11/30 07:16:07;;;;;;;32.90;20.20;;;;;;;0.46;76.48;101419.77;101237;1293;106842;-68
2022/11/30 07:18:35;;;;;;;35.40;19.50;;;;;;;0.48;76.72;101419.48;101218;1284;139033;-68
2022/11/30 07:21:02;;;;;;;34.20;19.90;;;;;;;0.52;76.73;101423.00;101306;1286;108104;-71
2022/11/30 07:26:24;;;;;;;34.20;19.40;;;;;;;0.56;76.63;101422.97;99775;1293;138054;-70
2022/11/30 07:28:56;;;;;;;35.80;20.20;;;;;;;0.55;76.35;101421.08;99940;1289;107692;-71
2022/11/30 07:31:26;;;;;;;32.10;19.20;;;;;;;0.56;76.32;101421.08;99824;1291;138684;-69
2022/11/30 07:33:56;;;;;;;35.00;20.60;;;;;;;0.59;76.53;101416.73;99971;1291;108683;-69
2022/11/30 07:36:25;;;;;;;30.70;19.80;;;;;;;0.62;76.47;101422.79;99916;1283;96718;-70
2022/11/30 07:38:53;;;;;;;33.90;20.30;;;;;;;0.63;76.52;101426.40;100319;1284;109954;-71
2022/11/30 07:41:21;;;;;;;34.70;21.40;;;;;;;0.63;76.38;101426.05;99906;1291;108421;-70
2022/11/30 07:43:48;;;;;;;36.00;21.40;;;;;;;0.60;76.51;101426.15;99763;1285;138661;-70
2022/11/30 07:46:16;;;;;;;33.00;19.70;;;;;;;0.58;76.46;101429.02;99821;1285;108477;-71
2022/11/30 07:48:45;;;;;;;35.00;20.90;;;;;;;0.56;76.48;101429.64;99672;1291;142712;-71
2022/11/30 07:51:16;;;;;;;37.00;19.10;;;;;;;0.54;76.57;101431.80;100091;1291;110053;-71
2022/11/30 07:53:43;;;;;;;32.40;20.80;;;;;;;0.56;76.78;101430.33;100063;1286;107576;-70
2022/11/30 07:56:14;;;;;;;33.10;20.50;;;;;;;0.60;76.75;101430.10;99836;1291;138236;-71
2022/11/30 07:58:42;;;;;;;35.60;21.30;;;;;;;0.60;76.75;101429.40;99889;1291;107766;-69
2022/11/30 08:01:13;;;;;;;35.30;21.60;;;;;;;0.63;76.68;101428.44;99726;1285;137691;-69
2022/11/30 08:03:40;;;;;;;36.50;22.20;;;;;;;0.62;76.60;101429.11;101000;1292;110883;-69
2022/11/30 08:06:11;;;;;;;34.40;21.70;;;;;;;0.62;76.54;101429.79;99955;1299;108029;-68
2022/11/30 08:08:41;;;;;;;36.30;21.50;;;;;;;0.56;76.55;101428.98;100394;1284;137575;-68
2022/11/30 08:11:34;;;;;;;37.70;22.30;;;;;;;0.54;76.77;101428.75;100015;1291;107086;-70
2022/11/30 08:14:04;;;;;;;31.70;20.40;;;;;;;0.53;76.86;101431.26;100196;1291;138500;-70
2022/11/30 08:16:35;;;;;;;33.20;19.60;;;;;;;0.50;76.78;101429.30;100214;1292;110070;-71
2022/11/30 08:19:03;;;;;;;31.30;19.00;;;;;;;0.47;76.76;101433.84;100898;1287;139892;-70
2022/11/30 08:21:32;;;;;;;32.20;20.20;;;;;;;0.44;76.72;101433.91;99321;1283;98899;-68
2022/11/30 08:23:59;;;;;;;32.10;20.00;;;;;;;0.42;76.91;101429.42;99190;1284;107634;-70
2022/11/30 08:26:32;;;;;;;33.90;20.40;;;;;;;0.44;77.00;101432.71;99157;1284;139830;-68
2022/11/30 08:29:01;;;;;;;31.70;20.30;;;;;;;0.43;77.08;101433.39;100273;1284;113063;-68
2022/11/30 08:31:32;;;;;;;36.20;20.80;;;;;;;0.43;77.23;101432.88;99141;1283;138344;-69
2022/11/30 08:34:05;;;;;;;37.60;21.70;;;;;;;0.44;77.28;101434.61;99772;1286;96605;-70
2022/11/30 08:36:33;;;;;;;35.20;21.20;;;;;;;0.47;77.36;101432.29;99872;1291;137906;-68
2022/11/30 08:39:03;;;;;;;33.90;20.80;;;;;;;0.49;77.32;101436.64;99902;1293;96834;-69
2022/11/30 08:41:31;;;;;;;35.90;21.20;;;;;;;0.52;77.36;101437.73;100358;1292;110980;-68
2022/11/30 08:43:59;;;;;;;32.30;20.60;;;;;;;0.53;77.18;101434.69;100079;1291;139502;-69
2022/11/30 08:46:27;;;;;;;34.80;20.90;;;;;;;0.51;77.02;101435.32;99896;1291;96492;-69
2022/11/30 08:49:14;;;;;;;33.10;21.20;;;;;;;0.51;77.14;101436.17;99857;1291;137768;-69
2022/11/30 08:51:51;;;;;;;36.70;20.80;;;;;;;0.50;77.29;101441.27;99846;1283;96273;-69
2022/11/30 08:54:41;;;;;;;34.00;20.30;;;;;;;0.47;77.21;101444.10;99837;1286;137965;-69
2022/11/30 08:57:08;;;;;;;33.50;19.30;;;;;;;0.46;77.38;101438.42;100057;1287;107448;-70
2022/11/30 08:59:36;;;;;;;29.00;17.40;;;;;;;0.46;77.42;101441.00;99981;1291;96578;-69
2022/11/30 09:02:04;;;;;;;32.50;19.10;;;;;;;0.45;77.30;101439.79;99819;1284;138672;-69
2022/11/30 09:04:32;;;;;;;34.40;19.40;;;;;;;0.47;77.48;101438.80;99968;1287;96343;-70
2022/11/30 09:06:59;;;;;;;31.50;20.20;;;;;;;0.50;77.53;101435.11;99754;1291;137275;-69
2022/11/30 09:09:27;;;;;;;32.60;20.50;;;;;;;0.51;77.55;101437.02;99980;1290;107826;-69
2022/11/30 09:11:56;;;;;;;30.20;19.30;;;;;;;0.53;77.59;101436.41;100612;1294;1002809;-70
2022/11/30 09:14:23;;;;;;;32.00;19.00;;;;;;;0.55;77.60;101438.88;100235;1291;137702;-69
2022/11/30 09:16:52;;;;;;;29.90;19.30;;;;;;;0.56;77.50;101441.45;99909;1293;96516;-70
2022/11/30 09:19:20;;;;;;;34.00;21.20;;;;;;;0.54;77.48;101442.60;99811;1291;138299;-69
2022/11/30 09:21:47;;;;;;;39.40;21.90;;;;;;;0.51;77.47;101445.74;99920;1291;108285;-70
2022/11/30 09:24:18;;;;;;;38.10;23.10;;;;;;;0.48;77.64;101449.60;99793;1284;96448;-69
2022/11/30 09:26:45;;;;;;;34.70;21.10;;;;;;;0.44;77.74;101444.89;99847;1284;137609;-69
2022/11/30 09:29:13;;;;;;;36.30;22.00;;;;;;;0.41;77.89;101444.80;99922;1291;96453;-69
2022/11/30 09:31:40;;;;;;;32.00;20.80;;;;;;;0.41;77.84;101450.11;100690;1297;137846;-69
2022/11/30 09:34:11;;;;;;;32.50;20.40;;;;;;;0.41;77.98;101447.73;99969;1297;107966;-69
2022/11/30 09:36:38;;;;;;;33.60;21.50;;;;;;;0.43;78.02;101448.45;101203;1291;138708;-63
2022/11/30 09:39:06;;;;;;;34.60;21.30;;;;;;;0.46;78.01;101448.00;100341;1291;106195;-71
2022/11/30 09:42:02;;;;;;;35.90;21.60;;;;;;;0.50;78.08;101446.92;99903;1291;96462;-69
2022/11/30 09:44:38;;;;;;;31.30;19.50;;;;;;;0.53;78.02;101445.29;99830;1283;137721;-68
2022/11/30 09:47:25;;;;;;;31.60;19.80;;;;;;;0.53;77.94;101450.61;99966;1293;107749;-72
2022/11/30 09:50:02;;;;;;;33.60;20.40;;;;;;;0.55;77.96;101442.29;99889;1293;138239;-71
2022/11/30 09:52:36;;;;;;;32.80;20.30;;;;;;;0.58;78.03;101446.31;99928;1291;108029;-71
2022/11/30 09:55:08;;;;;;;34.40;21.00;;;;;;;0.59;77.93;101445.82;99831;1287;140037;-71
2022/11/30 09:57:41;;;;;;;32.30;20.20;;;;;;;0.59;77.96;101446.33;101099;1284;111348;-70
2022/11/30 10:00:16;;;;;;;32.20;20.30;;;;;;;0.62;78.07;101448.63;99812;1291;108650;-70
2022/11/30 10:02:44;;;;;;;30.30;19.10;;;;;;;0.65;77.99;101450.91;100621;1291;139229;-70
2022/11/30 10:05:20;;;;;;;30.80;18.30;;;;;;;0.64;77.65;101450.20;101286;1294;107444;-69
2022/11/30 10:08:08;;;;;;;31.50;19.80;;;;;;;0.58;77.63;101447.69;101188;1293;137414;-70
2022/11/30 10:10:42;;;;;;;29.40;19.20;;;;;;;0.57;77.72;101447.81;100995;1284;287135;-70
2022/11/30 10:13:26;;;;;;;27.80;19.10;;;;;;;0.55;77.70;101451.20;100978;1300;137711;-68
2022/11/30 10:16:02;;;;;;;29.80;18.30;;;;;;;0.52;77.78;101448.17;99838;1285;96353;-68
2022/11/30 10:18:33;;;;;;;;;;;;;;;0.51;78.05;101446.42;100050;1291;138084;-69
2022/11/30 10:21:13;;;;;;;25.20;15.00;;;;;;;0.51;77.99;101447.97;100110;1287;96534;-71
2022/11/30 10:23:54;;;;;;;23.70;14.60;;;;;;;0.50;77.92;101443.50;99941;1291;110518;-70
2022/11/30 10:26:31;;;;;;;25.00;15.50;;;;;;;0.50;78.03;101444.53;100686;1292;138845;-68
2022/11/30 10:29:06;;;;;;;22.30;13.80;;;;;;;0.52;77.98;101446.45;99416;1285;1003071;-70
2022/11/30 10:31:36;;;;;;;24.00;15.50;;;;;;;0.51;78.07;101442.66;99727;1277;138740;-73
2022/11/30 10:34:13;;;;;;;23.30;16.50;;;;;;;0.51;78.17;101444.05;99953;1292;96509;-69
2022/11/30 10:36:44;;;;;;;28.60;17.80;;;;;;;0.52;78.27;101442.70;99697;1292;138415;-70
2022/11/30 10:39:20;;;;;;;26.60;16.50;;;;;;;0.51;78.23;101444.20;100752;1293;108426;-70
2022/11/30 10:41:52;;;;;;;22.30;14.60;;;;;;;0.49;78.26;101438.66;99798;1297;96611;-68
2022/11/30 10:44:24;;;;;;;25.00;15.40;;;;;;;0.50;78.39;101441.63;99987;1285;137912;-68
2022/11/30 10:46:59;;;;;;;25.00;16.00;;;;;;;0.53;78.34;101439.63;99888;1291;96473;-71
2022/11/30 10:49:30;;;;;;;21.70;14.40;;;;;;;0.53;78.45;101437.61;99805;1292;138669;-69
2022/11/30 10:52:02;;;;;;;24.00;14.60;;;;;;;0.55;78.50;101435.98;99693;1287;109318;-72
2022/11/30 10:54:31;;;;;;;23.60;15.10;;;;;;;0.58;78.45;101432.95;100860;1283;94653;-67
2022/11/30 10:57:01;;;;;;;22.20;14.50;;;;;;;0.62;78.62;101430.31;100488;1293;107820;-68
2022/11/30 10:59:39;;;;;;;20.50;13.30;;;;;;;0.66;78.45;101431.95;99900;1291;96456;-68
2022/11/30 11:02:35;;;;;;;28.80;15.30;;;;;;;0.69;78.46;101431.16;99779;1287;137856;-68
2022/11/30 11:05:19;;;;;;;25.80;15.70;;;;;;;0.70;78.43;101434.95;99961;1277;107667;-70
2022/11/30 11:07:56;;;;;;;29.10;16.20;;;;;;;0.70;78.37;101428.98;99876;1291;137563;-69
2022/11/30 11:10:36;;;;;;;26.00;14.50;;;;;;;0.70;78.50;101425.21;100512;1293;106999;-69
2022/11/30 11:13:05;;;;;;;23.40;14.40;;;;;;;0.68;78.40;101426.17;99769;1291;138484;-68
2022/11/30 11:15:35;;;;;;;24.60;15.40;;;;;;;0.64;78.43;101432.75;100036;1293;111800;-70
2022/11/30 11:18:24;;;;;;;25.60;15.40;;;;;;;0.59;78.48;101436.08;100054;1290;107644;-69
2022/11/30 11:21:03;;;;;;;24.50;15.00;;;;;;;0.58;78.68;101438.95;100028;1291;138728;-69
2022/11/30 11:23:35;;;;;;;23.50;14.80;;;;;;;0.54;78.75;101435.92;101320;1301;108897;-69